Time;durP1;ratioP1;P1;durP2;ratioP2;P2;SDS_P1;SDS_P2;PMS_P1;PMS_P2;Temp;Humidity;BMP_temperature;BMP_pressure;BME280_temperature;BME280_humidity;BME280_pressure;Samples;Min_cycle;Max_cycle;Signal;HPM_P1;HPM_P2
2023/08/16 00:01:01;;;;;;;4.35;1.83;;;;;;;15.03;100.00;101741.91;4962631;28;20217;-47
2023/08/16 00:03:27;;;;;;;7.22;2.20;;;;;;;15.15;100.00;101745.88;4963098;28;20190;-47
2023/08/16 00:05:52;;;;;;;6.97;2.70;;;;;;;15.09;100.00;101748.88;4962816;28;20282;-48
2023/08/16 00:08:18;;;;;;;6.60;2.65;;;;;;;15.15;100.00;101754.00;4964050;28;20212;-50
2023/08/16 00:10:44;;;;;;;4.38;2.22;;;;;;;15.17;100.00;101749.41;4961767;28;20225;-46
2023/08/16 00:13:09;;;;;;;4.40;2.17;;;;;;;15.18;100.00;101749.34;4958450;28;20572;-45
2023/08/16 00:15:35;;;;;;;3.63;2.00;;;;;;;15.21;100.00;101751.03;4959111;28;20214;-47
2023/08/16 00:18:00;;;;;;;4.78;2.13;;;;;;;15.20;100.00;101752.00;4962311;28;20566;-45
2023/08/16 00:20:28;;;;;;;6.70;2.42;;;;;;;15.07;100.00;101751.63;4960986;28;20312;-48
2023/08/16 00:22:54;;;;;;;3.10;2.00;;;;;;;15.03;100.00;101748.16;4962184;28;20574;-45
2023/08/16 00:25:20;;;;;;;7.05;2.08;;;;;;;15.00;100.00;101756.41;4963144;28;20277;-45
2023/08/16 00:27:46;;;;;;;5.05;2.25;;;;;;;14.94;100.00;101740.47;4973260;23;20669;-50
2023/08/16 00:30:11;;;;;;;4.90;1.90;;;;;;;14.99;100.00;101742.97;4959778;28;20248;-47
2023/08/16 00:32:37;;;;;;;6.32;2.13;;;;;;;14.92;100.00;101761.25;4960396;28;20554;-47
2023/08/16 00:35:04;;;;;;;6.32;2.33;;;;;;;14.86;100.00;101758.78;4949592;28;20171;-48
2023/08/16 00:37:30;;;;;;;6.55;2.40;;;;;;;14.59;100.00;101758.09;4946064;28;20648;-47
2023/08/16 00:39:56;;;;;;;6.97;2.17;;;;;;;14.61;100.00;101757.09;4962082;28;20249;-48
2023/08/16 00:42:22;;;;;;;4.05;2.53;;;;;;;14.59;100.00;101764.38;4954878;28;20220;-46
2023/08/16 00:44:47;;;;;;;4.22;2.00;;;;;;;14.62;100.00;101766.06;4960731;28;20178;-48
2023/08/16 00:47:13;;;;;;;5.07;2.05;;;;;;;14.67;100.00;101771.28;4955994;28;20179;-48
2023/08/16 00:49:40;;;;;;;5.82;2.25;;;;;;;14.49;100.00;101765.63;4959861;28;20206;-47
2023/08/16 00:52:06;;;;;;;4.43;2.20;;;;;;;14.58;100.00;101768.03;4957686;28;20253;-45
2023/08/16 00:54:32;;;;;;;6.70;2.50;;;;;;;14.52;100.00;101762.84;4959882;28;20695;-48
2023/08/16 00:56:58;;;;;;;4.55;2.17;;;;;;;14.47;100.00;101781.00;4942201;28;20178;-47
2023/08/16 00:59:26;;;;;;;5.40;2.40;;;;;;;14.52;100.00;101768.22;4958710;28;20213;-46
2023/08/16 01:01:52;;;;;;;6.15;2.40;;;;;;;14.55;100.00;101776.22;4950109;28;20281;-45
2023/08/16 01:04:19;;;;;;;5.25;2.65;;;;;;;14.59;100.00;101772.47;4954313;28;20183;-45
2023/08/16 01:06:44;;;;;;;6.10;2.47;;;;;;;14.33;100.00;101780.69;4958681;28;20563;-46
2023/08/16 01:09:10;;;;;;;7.13;1.92;;;;;;;14.42;100.00;101780.31;4958894;28;20250;-46
2023/08/16 01:11:46;;;;;;;4.60;2.35;;;;;;;14.29;100.00;101789.81;4958134;28;20194;-44
2023/08/16 01:14:23;;;;;;;5.05;2.28;;;;;;;14.14;100.00;101785.88;4942864;28;21116;-46
2023/08/16 01:16:51;;;;;;;3.78;2.30;;;;;;;14.11;100.00;101789.56;4948047;28;20178;-44
2023/08/16 01:19:28;;;;;;;9.63;2.95;;;;;;;14.12;100.00;101802.09;4950436;28;21234;-43
2023/08/16 01:22:04;;;;;;;6.78;2.65;;;;;;;13.96;100.00;101803.63;4957613;28;20174;-47
2023/08/16 01:24:38;;;;;;;11.73;3.33;;;;;;;13.95;100.00;101802.75;4959951;28;20189;-45
2023/08/16 01:27:05;;;;;;;8.45;2.65;;;;;;;13.97;100.00;101808.97;4949742;28;20190;-45
2023/08/16 01:29:32;;;;;;;6.63;2.97;;;;;;;14.08;100.00;101819.34;4962062;28;20218;-46
2023/08/16 01:31:58;;;;;;;7.20;2.90;;;;;;;14.08;100.00;101813.97;4966047;28;20236;-43
2023/08/16 01:34:25;;;;;;;5.45;2.50;;;;;;;14.14;100.00;101810.13;4943113;28;20627;-39
2023/08/16 01:36:51;;;;;;;5.03;2.42;;;;;;;14.17;100.00;101821.69;4960274;28;20178;-41
2023/08/16 01:39:16;;;;;;;5.88;2.55;;;;;;;14.17;100.00;101818.13;4961149;28;20204;-41
2023/08/16 01:41:48;;;;;;;12.00;3.00;;;;;;;14.10;100.00;101824.66;4947586;28;20181;-40
2023/08/16 01:44:17;;;;;;;5.40;2.80;;;;;;;14.05;100.00;101823.97;4961986;28;20182;-42
2023/08/16 01:46:43;;;;;;;5.32;2.38;;;;;;;14.09;100.00;101809.44;4944698;28;20309;-41
2023/08/16 01:49:10;;;;;;;9.45;2.65;;;;;;;13.84;100.00;101817.53;4945164;28;20286;-43
2023/08/16 01:51:37;;;;;;;4.05;2.70;;;;;;;13.99;100.00;101825.06;4962122;28;20250;-40
2023/08/16 01:54:02;;;;;;;7.10;2.83;;;;;;;13.97;100.00;101825.13;4963687;28;20871;-41
2023/08/16 01:56:28;;;;;;;7.68;2.88;;;;;;;13.90;100.00;101820.88;4965475;28;20185;-42
2023/08/16 01:58:53;;;;;;;7.60;3.00;;;;;;;13.78;100.00;101821.34;4949330;28;20194;-43
2023/08/16 02:01:19;;;;;;;8.98;2.90;;;;;;;13.84;100.00;101815.72;4944963;28;20264;-41
2023/08/16 02:03:44;;;;;;;9.40;3.03;;;;;;;13.89;100.00;101821.81;4964751;28;20182;-42
2023/08/16 02:06:10;;;;;;;6.63;3.00;;;;;;;13.80;100.00;101817.66;4959329;28;20198;-42
2023/08/16 02:08:36;;;;;;;4.35;2.35;;;;;;;13.91;100.00;101824.47;4961173;28;20225;-40
2023/08/16 02:11:01;;;;;;;5.47;2.75;;;;;;;13.84;100.00;101826.50;4956524;28;20186;-42
2023/08/16 02:13:27;;;;;;;4.80;2.90;;;;;;;13.84;100.00;101831.00;4944360;28;20672;-41
2023/08/16 02:16:03;;;;;;;5.82;2.50;;;;;;;13.91;100.00;101822.66;4941846;28;20607;-41
2023/08/16 02:18:30;;;;;;;9.10;2.78;;;;;;;13.91;100.00;101827.16;4943325;28;20760;-42
2023/08/16 02:20:56;;;;;;;5.03;2.60;;;;;;;13.87;100.00;101826.38;4948386;28;20181;-42
2023/08/16 02:23:21;;;;;;;7.72;2.50;;;;;;;13.90;100.00;101828.97;4949857;28;20552;-41
2023/08/16 02:25:47;;;;;;;3.97;2.60;;;;;;;13.92;100.00;101827.09;4961100;28;20199;-42
2023/08/16 02:28:12;;;;;;;5.75;2.45;;;;;;;13.96;100.00;101828.75;4944299;28;20202;-42
2023/08/16 02:30:38;;;;;;;8.52;3.30;;;;;;;13.93;100.00;101836.06;4964793;28;20270;-41
2023/08/16 02:33:04;;;;;;;9.55;2.92;;;;;;;13.86;100.00;101834.50;4948914;28;20178;-41
2023/08/16 02:35:29;;;;;;;6.28;2.65;;;;;;;13.93;100.00;101844.16;4961114;28;20246;-41
2023/08/16 02:37:55;;;;;;;5.53;2.50;;;;;;;13.93;100.00;101834.25;4961161;28;20198;-41
2023/08/16 02:40:21;;;;;;;5.57;2.55;;;;;;;13.94;100.00;101836.00;4950590;28;20949;-43
2023/08/16 02:42:49;;;;;;;8.73;3.03;;;;;;;13.87;100.00;101830.91;4965788;28;20185;-41
2023/08/16 02:45:15;;;;;;;5.57;2.63;;;;;;;13.90;100.00;101837.03;4959427;28;20174;-41
2023/08/16 02:47:41;;;;;;;8.15;2.80;;;;;;;13.77;100.00;101831.25;4965740;28;20582;-41
2023/08/16 02:50:07;;;;;;;3.90;2.25;;;;;;;13.88;100.00;101833.50;4949475;28;20226;-43
2023/08/16 02:52:32;;;;;;;4.38;2.50;;;;;;;13.87;100.00;101830.91;4966710;28;20179;-41
2023/08/16 02:54:58;;;;;;;7.05;2.65;;;;;;;13.82;100.00;101831.06;4949385;28;20640;-41
2023/08/16 02:57:25;;;;;;;7.78;2.92;;;;;;;13.81;100.00;101832.84;4960950;28;20170;-39
2023/08/16 02:59:51;;;;;;;5.70;2.75;;;;;;;13.81;100.00;101837.38;4952345;28;20186;-42
2023/08/16 03:02:17;;;;;;;9.75;2.95;;;;;;;13.78;100.00;101838.38;4945161;28;20189;-41
2023/08/16 03:04:42;;;;;;;10.60;4.00;;;;;;;13.73;100.00;101839.44;4962362;28;20303;-41
2023/08/16 03:07:09;;;;;;;5.97;2.90;;;;;;;13.79;100.00;101834.72;4944241;28;20201;-41
2023/08/16 03:09:35;;;;;;;5.30;2.50;;;;;;;13.80;100.00;101839.19;4934924;28;20578;-44
2023/08/16 03:12:02;;;;;;;5.20;2.75;;;;;;;13.71;100.00;101831.44;4964977;28;20653;-42
2023/08/16 03:14:28;;;;;;;5.28;2.45;;;;;;;13.66;100.00;101837.91;4966058;28;20209;-41
2023/08/16 03:16:56;;;;;;;5.72;2.75;;;;;;;13.60;100.00;101842.59;4951105;28;20213;-42
2023/08/16 03:19:21;;;;;;;5.10;2.60;;;;;;;13.67;100.00;101842.38;4951032;28;20186;-42
2023/08/16 03:21:47;;;;;;;14.10;3.78;;;;;;;13.57;100.00;101853.44;4952905;28;20189;-39
2023/08/16 03:24:13;;;;;;;8.45;3.35;;;;;;;13.64;100.00;101846.03;4961906;28;20672;-43
2023/08/16 03:26:38;;;;;;;7.70;3.47;;;;;;;13.70;100.00;101851.22;4946037;28;20652;-42
2023/08/16 03:29:05;;;;;;;5.35;3.10;;;;;;;13.78;100.00;101859.03;4950278;28;20209;-42
2023/08/16 03:31:31;;;;;;;9.45;3.80;;;;;;;13.77;100.00;101857.28;4952374;28;20210;-44
2023/08/16 03:33:57;;;;;;;5.50;3.30;;;;;;;13.84;100.00;101866.00;4951240;28;20209;-42
2023/08/16 03:36:24;;;;;;;10.55;3.80;;;;;;;13.86;100.00;101859.63;4950626;28;20175;-42
2023/08/16 03:38:49;;;;;;;11.05;4.25;;;;;;;13.86;100.00;101867.72;4952864;28;20222;-41
2023/08/16 03:41:15;;;;;;;7.65;3.60;;;;;;;13.87;100.00;101860.53;4948973;28;20201;-42
2023/08/16 03:43:41;;;;;;;10.15;4.57;;;;;;;13.84;100.00;101866.91;4948361;28;20236;-41
2023/08/16 03:46:07;;;;;;;9.95;4.10;;;;;;;13.82;100.00;101876.88;4944777;28;20640;-42
2023/08/16 03:48:32;;;;;;;10.90;4.50;;;;;;;13.80;100.00;101876.03;4962242;28;20581;-44
2023/08/16 03:50:58;;;;;;;8.35;4.28;;;;;;;13.79;100.00;101868.88;4945490;28;20182;-42
2023/08/16 03:53:23;;;;;;;7.32;3.85;;;;;;;13.81;100.00;101873.25;4948624;28;20178;-42
2023/08/16 03:55:55;;;;;;;8.00;4.35;;;;;;;13.85;100.00;101879.44;4967660;28;20190;-43
2023/08/16 03:58:20;;;;;;;10.40;4.82;;;;;;;13.72;100.00;101878.09;4963439;28;20191;-42
2023/08/16 04:00:53;;;;;;;11.63;5.68;;;;;;;13.74;100.00;101892.41;4954657;28;20206;-40
2023/08/16 04:03:19;;;;;;;11.60;4.68;;;;;;;13.66;100.00;101892.66;4943089;28;20234;-42
2023/08/16 04:05:45;;;;;;;12.35;4.50;;;;;;;13.58;100.00;101892.94;4961341;28;20178;-42
2023/08/16 04:08:13;;;;;;;7.25;3.70;;;;;;;13.63;100.00;101892.75;4964001;28;20206;-42
2023/08/16 04:10:38;;;;;;;13.40;4.68;;;;;;;13.66;100.00;101899.84;4946984;28;20220;-42
2023/08/16 04:13:04;;;;;;;10.02;4.90;;;;;;;13.53;100.00;101902.94;4958373;28;20166;-42
2023/08/16 04:15:30;;;;;;;9.40;4.32;;;;;;;13.52;100.00;101898.50;4964329;28;20201;-42
2023/08/16 04:17:56;;;;;;;9.85;4.82;;;;;;;13.49;100.00;101905.78;4965634;28;20612;-43
2023/08/16 04:20:22;;;;;;;10.85;5.38;;;;;;;13.44;100.00;101905.94;4945825;28;20178;-40
2023/08/16 04:22:48;;;;;;;7.72;4.28;;;;;;;13.51;100.00;101906.63;4962682;28;20190;-41
2023/08/16 04:25:14;;;;;;;6.25;4.25;;;;;;;13.56;100.00;101908.25;4945161;28;20637;-41
2023/08/16 04:27:41;;;;;;;10.98;5.03;;;;;;;13.54;100.00;101909.25;4943814;28;20225;-41
2023/08/16 04:30:08;;;;;;;6.53;4.00;;;;;;;13.57;100.00;101906.44;4951142;28;20182;-42
2023/08/16 04:32:34;;;;;;;8.25;4.00;;;;;;;13.66;100.00;101918.72;4961828;28;20269;-43
2023/08/16 04:35:00;;;;;;;6.20;3.95;;;;;;;13.64;100.00;101920.56;4949025;28;20648;-42
2023/08/16 04:37:26;;;;;;;12.82;5.80;;;;;;;13.61;100.00;101918.88;4954465;28;20177;-42
2023/08/16 04:39:51;;;;;;;6.43;4.00;;;;;;;13.74;100.00;101920.22;4950060;28;20187;-41
2023/08/16 04:42:18;;;;;;;4.38;3.83;;;;;;;13.81;100.00;101918.19;4951465;28;20272;-41
2023/08/16 04:44:44;;;;;;;6.05;3.50;;;;;;;13.88;100.00;101917.03;4963915;28;20677;-41
2023/08/16 04:47:10;;;;;;;9.52;4.78;;;;;;;14.10;100.00;101922.56;4951913;28;20185;-40
2023/08/16 04:49:37;;;;;;;6.65;3.58;;;;;;;14.65;100.00;101921.50;4962526;28;20194;-43
2023/08/16 04:52:03;;;;;;;14.70;4.78;;;;;;;14.87;100.00;101921.56;4957509;28;20185;-43
2023/08/16 04:54:29;;;;;;;7.68;4.25;;;;;;;15.16;100.00;101924.00;4951666;28;20253;-42
2023/08/16 04:56:54;;;;;;;8.80;4.53;;;;;;;15.19;100.00;101926.56;4963185;28;20178;-39
2023/08/16 04:59:20;;;;;;;8.45;3.88;;;;;;;15.40;100.00;101919.44;4959494;28;20186;-42
2023/08/16 05:01:45;;;;;;;8.65;3.65;;;;;;;15.81;100.00;101922.25;4944079;28;20245;-41
2023/08/16 05:04:11;;;;;;;5.57;3.25;;;;;;;16.00;100.00;101921.47;4943759;28;20186;-43
2023/08/16 05:06:37;;;;;;;13.38;3.90;;;;;;;15.70;100.00;101908.31;4959645;28;20202;-40
2023/08/16 05:09:04;;;;;;;7.00;2.90;;;;;;;15.96;100.00;101915.31;4956501;28;20680;-41
2023/08/16 05:11:30;;;;;;;7.10;2.95;;;;;;;16.07;100.00;101920.25;4949719;28;20198;-41
2023/08/16 05:13:56;;;;;;;10.52;3.35;;;;;;;15.90;100.00;101914.72;4948096;28;20186;-41
2023/08/16 05:16:22;;;;;;;8.70;3.08;;;;;;;16.09;100.00;101912.06;4964926;28;20240;-42
2023/08/16 05:18:48;;;;;;;10.40;3.00;;;;;;;15.89;100.00;101907.53;4948366;28;20229;-42
2023/08/16 05:21:15;;;;;;;6.68;3.00;;;;;;;16.09;100.00;101912.06;4961488;28;20187;-42
2023/08/16 05:23:40;;;;;;;6.85;2.45;;;;;;;16.32;100.00;101908.34;4957697;28;20216;-41
2023/08/16 05:26:06;;;;;;;5.82;2.45;;;;;;;16.44;100.00;101910.47;4963243;28;20268;-43
2023/08/16 05:28:31;;;;;;;8.65;2.90;;;;;;;16.18;100.00;101912.56;4959822;28;20220;-42
2023/08/16 05:31:08;;;;;;;7.28;2.50;;;;;;;16.35;100.00;101913.59;4956669;28;20186;-42
2023/08/16 05:33:35;;;;;;;9.65;2.75;;;;;;;16.29;100.00;101920.19;4950802;28;20631;-41
2023/08/16 05:36:00;;;;;;;4.93;2.40;;;;;;;16.32;100.00;101913.75;4959063;28;20190;-42
2023/08/16 05:38:26;;;;;;;6.75;2.67;;;;;;;16.46;100.00;101914.00;4960795;28;20193;-40
2023/08/16 05:40:51;;;;;;;6.15;2.67;;;;;;;16.42;100.00;101915.06;4941420;28;20657;-43
2023/08/16 05:43:17;;;;;;;7.30;2.50;;;;;;;16.66;100.00;101915.78;4957467;28;20579;-42
2023/08/16 05:45:42;;;;;;;5.68;2.47;;;;;;;16.85;100.00;101910.44;4961792;28;20177;-42
2023/08/16 05:48:08;;;;;;;5.75;2.47;;;;;;;17.04;100.00;101913.16;4937472;28;20487;-44
2023/08/16 05:50:35;;;;;;;7.35;2.72;;;;;;;16.89;100.00;101914.75;4945034;28;20249;-41
2023/08/16 05:53:00;;;;;;;7.35;2.63;;;;;;;17.09;100.00;101911.94;4963568;28;20228;-41
2023/08/16 05:55:26;;;;;;;7.10;2.40;;;;;;;17.24;100.00;101912.19;4963706;28;20296;-42
2023/08/16 05:57:51;;;;;;;7.22;2.53;;;;;;;17.57;100.00;101908.75;4964178;28;20281;-40
2023/08/16 06:00:17;;;;;;;12.40;3.05;;;;;;;17.42;100.00;101907.66;4960535;28;20178;-42
2023/08/16 06:02:43;;;;;;;7.05;2.20;;;;;;;17.68;100.00;101911.78;4961658;28;20174;-42
2023/08/16 06:05:09;;;;;;;9.43;2.58;;;;;;;18.04;100.00;101909.06;4961492;28;20185;-43
2023/08/16 06:07:35;;;;;;;8.82;2.40;;;;;;;18.44;100.00;101908.75;4960182;28;20480;-42
2023/08/16 06:10:01;;;;;;;8.13;2.10;;;;;;;18.76;100.00;101906.09;4965395;28;20197;-42
2023/08/16 06:12:26;;;;;;;5.72;2.03;;;;;;;18.76;100.00;101900.66;4956545;28;20189;-41
2023/08/16 06:14:52;;;;;;;6.45;1.88;;;;;;;19.03;100.00;101901.00;4955940;28;20233;-41
2023/08/16 06:17:17;;;;;;;8.30;2.05;;;;;;;19.12;100.00;101905.91;4949652;28;20198;-42
2023/08/16 06:19:43;;;;;;;5.57;1.60;;;;;;;19.53;98.58;101916.25;4965049;28;20197;-41
2023/08/16 06:22:08;;;;;;;11.43;1.95;;;;;;;19.28;94.83;101901.34;4958303;28;20251;-42
2023/08/16 06:24:35;;;;;;;5.72;1.77;;;;;;;19.46;94.98;101901.22;4960262;28;20222;-42
2023/08/16 06:27:01;;;;;;;9.40;2.08;;;;;;;19.56;93.01;101906.03;4964763;28;20182;-43
2023/08/16 06:29:26;;;;;;;6.47;1.63;;;;;;;19.37;92.44;101899.94;4956477;28;20249;-42
2023/08/16 06:31:54;;;;;;;4.93;1.50;;;;;;;19.42;91.99;101905.13;4962993;28;20273;-40
2023/08/16 06:34:20;;;;;;;7.90;2.03;;;;;;;19.82;89.97;101906.38;4955128;28;20186;-42
2023/08/16 06:36:46;;;;;;;8.23;1.98;;;;;;;19.53;89.04;101918.97;4960069;28;20275;-41
2023/08/16 06:39:13;;;;;;;8.48;2.13;;;;;;;19.66;88.15;101916.41;4961917;28;20194;-42
2023/08/16 06:41:39;;;;;;;8.30;2.03;;;;;;;19.42;87.95;101913.28;4961615;28;20194;-41
2023/08/16 06:44:05;;;;;;;8.45;2.10;;;;;;;19.97;87.44;101910.03;4957839;28;20175;-40
2023/08/16 06:46:31;;;;;;;6.00;1.67;;;;;;;20.27;86.10;101901.81;4946497;28;20178;-40
2023/08/16 06:48:57;;;;;;;7.03;1.60;;;;;;;20.42;84.21;101905.41;4959997;28;20210;-42
2023/08/16 06:51:22;;;;;;;9.27;2.25;;;;;;;20.59;82.56;101901.66;4965781;28;20186;-41
2023/08/16 06:53:49;;;;;;;10.07;1.80;;;;;;;20.44;81.13;101884.41;4958434;28;20549;-42
2023/08/16 06:56:15;;;;;;;7.32;2.33;;;;;;;20.25;80.88;101894.75;4948313;28;20174;-41
2023/08/16 06:58:41;;;;;;;6.28;1.75;;;;;;;20.32;81.06;101893.38;4956543;28;20205;-40
2023/08/16 07:01:08;;;;;;;9.57;2.00;;;;;;;20.78;80.79;101896.81;4958582;28;20239;-41
2023/08/16 07:03:34;;;;;;;6.72;1.70;;;;;;;20.98;79.27;101891.91;4962583;28;20177;-41
2023/08/16 07:05:59;;;;;;;7.40;1.85;;;;;;;20.24;80.09;101906.56;4955619;28;20187;-41
2023/08/16 07:08:25;;;;;;;6.53;1.85;;;;;;;20.29;80.44;101907.16;4947441;28;20206;-41
2023/08/16 07:10:51;;;;;;;7.18;1.80;;;;;;;20.73;80.64;101917.16;4948880;28;20170;-41
2023/08/16 07:13:16;;;;;;;6.80;1.83;;;;;;;21.10;79.56;101907.47;4962409;28;20170;-42
2023/08/16 07:15:42;;;;;;;7.40;1.95;;;;;;;21.25;76.96;101899.25;4957876;28;20288;-43
2023/08/16 07:18:07;;;;;;;8.30;2.03;;;;;;;20.86;77.53;101899.03;4955730;28;20213;-43
2023/08/16 07:20:33;;;;;;;8.27;2.33;;;;;;;20.12;77.71;101911.81;4961621;28;20234;-44
2023/08/16 07:22:59;;;;;;;10.20;2.45;;;;;;;20.97;77.33;101912.84;4960445;28;20186;-41
2023/08/16 07:25:26;;;;;;;9.77;2.38;;;;;;;20.30;76.50;101904.34;4957670;28;20257;-42
2023/08/16 07:27:52;;;;;;;7.10;2.05;;;;;;;21.13;76.09;101906.41;4954444;28;20304;-40
2023/08/16 07:30:18;;;;;;;7.80;2.13;;;;;;;20.93;75.17;101897.66;4963187;28;20651;-42
2023/08/16 07:32:43;;;;;;;8.90;2.28;;;;;;;21.09;75.28;101900.25;4952223;28;20582;-41
2023/08/16 07:35:09;;;;;;;5.97;1.55;;;;;;;21.41;74.38;101891.84;4965440;28;20260;-42
2023/08/16 07:37:35;;;;;;;9.85;1.90;;;;;;;21.15;73.23;101888.09;4967012;28;20608;-40
2023/08/16 07:40:02;;;;;;;8.50;1.98;;;;;;;21.06;73.43;101896.88;4966778;28;20186;-42
2023/08/16 07:42:28;;;;;;;7.70;1.77;;;;;;;21.25;73.09;101891.94;4967203;28;20949;-42
2023/08/16 07:44:54;;;;;;;14.13;2.10;;;;;;;20.70;73.79;101915.47;4962014;28;20261;-42
2023/08/16 07:47:19;;;;;;;8.23;1.98;;;;;;;20.68;73.36;101911.09;4951460;28;20170;-40
2023/08/16 07:49:45;;;;;;;6.63;1.60;;;;;;;20.65;73.23;101905.88;4958793;28;20196;-42
2023/08/16 07:52:10;;;;;;;8.57;2.00;;;;;;;20.73;73.33;101915.31;4964558;28;20589;-42
2023/08/16 07:54:36;;;;;;;8.65;1.95;;;;;;;21.29;73.25;101908.97;4965236;28;20174;-41
2023/08/16 07:57:01;;;;;;;6.80;1.60;;;;;;;21.52;72.88;101900.16;4966185;28;20629;-41
2023/08/16 07:59:26;;;;;;;7.72;1.77;;;;;;;21.45;70.63;101893.38;4957508;28;20190;-42
2023/08/16 08:01:54;;;;;;;7.30;1.63;;;;;;;21.67;69.43;101886.44;4961691;28;20250;-42
2023/08/16 08:04:20;;;;;;;5.97;1.55;;;;;;;21.84;68.86;101888.91;4937046;28;20598;-43
2023/08/16 08:06:46;;;;;;;5.32;1.70;;;;;;;22.22;68.80;101890.84;4964697;28;20542;-42
2023/08/16 08:09:11;;;;;;;7.43;1.83;;;;;;;22.47;66.98;101879.03;4960338;28;20209;-44
2023/08/16 08:11:37;;;;;;;6.28;1.50;;;;;;;22.19;66.85;101872.81;4957272;28;20192;-41
2023/08/16 08:14:03;;;;;;;5.53;1.80;;;;;;;22.13;66.83;101886.88;4966928;28;20190;-42
2023/08/16 08:16:29;;;;;;;4.80;1.48;;;;;;;22.02;66.92;101893.09;4962980;28;20206;-41
2023/08/16 08:18:55;;;;;;;7.07;1.77;;;;;;;21.45;67.67;101900.66;4963398;28;20540;-42
2023/08/16 08:21:20;;;;;;;4.50;1.65;;;;;;;21.50;67.49;101912.16;4961178;28;20196;-41
2023/08/16 08:23:46;;;;;;;4.75;1.80;;;;;;;21.94;67.75;101905.53;4960370;28;20200;-42
2023/08/16 08:26:11;;;;;;;11.43;2.20;;;;;;;22.07;66.94;101895.50;4961418;28;21018;-42
2023/08/16 08:28:37;;;;;;;9.23;1.63;;;;;;;21.67;66.32;101891.91;4959143;28;20217;-42
2023/08/16 08:31:03;;;;;;;6.28;1.45;;;;;;;21.42;67.67;101903.63;4943829;28;20186;-42
2023/08/16 08:33:29;;;;;;;8.45;1.70;;;;;;;21.54;67.88;101910.97;4969351;28;20204;-41
2023/08/16 08:35:56;;;;;;;8.88;2.15;;;;;;;20.95;68.14;101920.25;4966082;28;20178;-38
2023/08/16 08:38:24;;;;;;;6.55;2.08;;;;;;;21.86;68.79;101927.88;4961092;28;20198;-42
2023/08/16 08:40:57;;;;;;;9.10;1.92;;;;;;;21.77;67.08;101907.53;4959115;28;20170;-42
2023/08/16 08:43:27;;;;;;;5.18;1.60;;;;;;;21.73;67.74;101916.03;4964273;28;20569;-42
2023/08/16 08:45:57;;;;;;;7.55;1.70;;;;;;;21.97;67.63;101919.84;4966024;28;20171;-41
2023/08/16 08:48:25;;;;;;;7.47;1.80;;;;;;;21.44;68.35;101921.63;4963066;28;20217;-41
2023/08/16 08:50:51;;;;;;;5.95;1.80;;;;;;;21.64;68.38;101925.72;4963603;28;20186;-44
2023/08/16 08:53:18;;;;;;;5.35;1.40;;;;;;;22.18;66.68;101911.13;4965166;28;20827;-45
2023/08/16 08:55:46;;;;;;;6.45;1.60;;;;;;;22.58;66.48;101917.38;4962749;28;20182;-48
2023/08/16 08:58:14;;;;;;;4.88;1.50;;;;;;;21.99;66.87;101916.97;4958145;28;20197;-47
2023/08/16 09:00:41;;;;;;;8.68;1.77;;;;;;;22.61;66.48;101917.19;4947038;28;20178;-49
2023/08/16 09:03:07;;;;;;;8.43;1.70;;;;;;;22.29;66.20;101910.41;4953427;28;20193;-54
2023/08/16 09:05:33;;;;;;;5.43;1.50;;;;;;;22.09;66.92;101923.56;4956986;28;20170;-48
2023/08/16 09:08:00;;;;;;;3.65;1.40;;;;;;;22.04;65.92;101909.38;4957954;28;20217;-49
2023/08/16 09:10:26;;;;;;;6.05;1.70;;;;;;;22.36;65.14;101914.44;4962657;28;20490;-53
2023/08/16 09:12:52;;;;;;;6.65;1.75;;;;;;;22.10;65.27;101908.06;4955881;28;20179;-49
2023/08/16 09:15:18;;;;;;;9.48;1.88;;;;;;;21.63;65.89;101913.09;4959686;28;20208;-49
2023/08/16 09:17:45;;;;;;;7.03;1.60;;;;;;;21.94;66.00;101911.84;4960769;28;20181;-51
2023/08/16 09:20:12;;;;;;;6.20;1.33;;;;;;;22.09;65.88;101920.84;4960179;28;20628;-50
2023/08/16 09:22:37;;;;;;;6.38;1.45;;;;;;;22.57;64.39;101902.00;4959361;28;20181;-49
2023/08/16 09:25:05;;;;;;;2.85;1.30;;;;;;;22.50;64.35;101900.69;4960462;28;20193;-49
2023/08/16 09:27:31;;;;;;;10.65;2.28;;;;;;;22.48;63.81;101905.38;4959016;28;20185;-48
2023/08/16 09:29:57;;;;;;;10.35;1.70;;;;;;;22.40;63.91;101905.91;4955942;28;20194;-52
2023/08/16 09:32:26;;;;;;;7.05;1.50;;;;;;;21.87;63.73;101898.75;4959726;28;20585;-49
2023/08/16 09:34:53;;;;;;;5.20;1.70;;;;;;;22.36;64.28;101914.44;4957256;28;20183;-47
2023/08/16 09:37:20;;;;;;;6.45;3.42;;;;;;;22.59;63.25;101900.03;4959378;28;20186;-51
2023/08/16 09:39:58;;;;;;;8.40;1.77;;;;;;;22.52;64.70;101926.03;4959343;28;20306;-47
2023/08/16 09:42:33;;;;;;;8.50;1.50;;;;;;;22.75;63.69;101909.84;4960839;28;20173;-52
2023/08/16 09:44:59;;;;;;;8.15;2.15;;;;;;;22.49;63.36;101898.94;4956532;28;20198;-46
2023/08/16 09:47:28;;;;;;;6.05;1.35;;;;;;;22.97;63.88;101909.16;4953970;28;20176;-47
2023/08/16 09:49:54;;;;;;;4.45;1.40;;;;;;;23.62;62.64;101894.28;4960973;28;20185;-46
2023/08/16 09:52:20;;;;;;;5.40;1.73;;;;;;;22.86;62.11;101881.75;4959671;28;20218;-47
2023/08/16 09:54:50;;;;;;;6.53;1.70;;;;;;;22.77;62.41;101884.16;4956205;28;20742;-46
2023/08/16 09:57:17;;;;;;;4.47;1.50;;;;;;;22.87;62.05;101881.63;4956212;28;20182;-46
2023/08/16 09:59:43;;;;;;;8.27;1.73;;;;;;;23.22;62.38;101889.97;4959808;28;20240;-47
2023/08/16 10:02:13;;;;;;;6.10;1.42;;;;;;;22.92;60.97;101871.22;4960878;28;20261;-45
2023/08/16 10:04:39;;;;;;;8.05;1.77;;;;;;;23.28;63.07;101898.69;4960912;28;20193;-48
2023/08/16 10:07:11;;;;;;;5.07;1.58;;;;;;;23.45;62.04;101892.81;4952849;28;20272;-46
2023/08/16 10:09:38;;;;;;;4.32;1.80;;;;;;;23.14;62.23;101892.41;4961416;28;20293;-47
2023/08/16 10:12:06;;;;;;;8.05;1.90;;;;;;;22.91;61.47;101888.59;4946444;28;20205;-53
2023/08/16 10:14:33;;;;;;;4.85;1.70;;;;;;;23.12;61.58;101896.25;4964507;28;20243;-52
2023/08/16 10:17:02;;;;;;;6.85;1.63;;;;;;;22.97;61.54;101893.59;4961158;28;20277;-50
2023/08/16 10:19:38;;;;;;;5.35;1.30;;;;;;;22.67;62.56;101904.06;4946505;28;20353;-45
2023/08/16 10:22:19;;;;;;;5.60;1.55;;;;;;;23.56;61.77;101900.22;4960410;28;20199;-54
2023/08/16 10:24:47;;;;;;;7.10;1.58;;;;;;;22.86;61.27;101887.19;4961712;28;20800;-53
2023/08/16 10:27:13;;;;;;;3.92;1.10;;;;;;;22.54;60.50;101874.91;4958793;28;20248;-47
2023/08/16 10:29:44;;;;;;;3.28;1.33;;;;;;;23.13;61.37;101897.97;4952267;28;20224;-47
2023/08/16 10:32:14;;;;;;;3.53;1.10;;;;;;;23.43;61.25;101890.19;4957402;28;20182;-50
2023/08/16 10:34:40;;;;;;;5.90;1.40;;;;;;;22.93;60.41;101870.22;4960701;28;20181;-49
2023/08/16 10:37:06;;;;;;;6.43;1.48;;;;;;;22.67;62.03;101899.47;4952706;28;20197;-51
2023/08/16 10:39:32;;;;;;;4.10;1.25;;;;;;;23.79;60.93;101879.31;4955770;28;20788;-52
2023/08/16 10:42:05;;;;;;;9.27;1.52;;;;;;;23.81;59.18;101867.28;4956552;28;20377;-47
2023/08/16 10:44:31;;;;;;;4.30;1.42;;;;;;;23.27;59.67;101866.88;4958723;28;20241;-50
2023/08/16 10:46:57;;;;;;;3.25;1.20;;;;;;;23.51;60.28;101880.56;4949307;28;20165;-49
2023/08/16 10:49:23;;;;;;;6.22;1.55;;;;;;;23.73;60.18;101877.03;4956784;28;20566;-52
2023/08/16 10:51:51;;;;;;;4.82;1.15;;;;;;;23.87;59.06;101865.03;4953265;28;20192;-47
2023/08/16 10:54:17;;;;;;;3.72;1.20;;;;;;;23.46;58.98;101859.00;4958101;28;20213;-47
2023/08/16 10:56:49;;;;;;;4.38;1.20;;;;;;;23.46;59.33;101859.00;4960060;28;20593;-48
2023/08/16 10:59:15;;;;;;;3.50;1.25;;;;;;;23.89;59.08;101872.13;4958907;28;20202;-47
2023/08/16 11:01:53;;;;;;;3.10;1.10;;;;;;;23.83;57.41;101846.13;4949576;28;20178;-45
2023/08/16 11:04:19;;;;;;;6.25;1.27;;;;;;;23.96;57.63;101861.56;4941050;28;20615;-47
2023/08/16 11:06:46;;;;;;;3.65;1.08;;;;;;;24.14;57.68;101851.03;4965137;28;20265;-48
2023/08/16 11:09:12;;;;;;;9.27;1.50;;;;;;;23.12;58.39;101845.16;4950922;28;20241;-46
2023/08/16 11:11:45;;;;;;;3.78;1.27;;;;;;;22.98;60.12;101873.50;4955247;28;20258;-49
2023/08/16 11:14:10;;;;;;;6.53;1.50;;;;;;;23.31;60.87;101880.22;4966937;28;20181;-46
2023/08/16 11:16:36;;;;;;;5.55;1.45;;;;;;;23.14;60.92;101883.34;4962725;28;20186;-46